M I D A S
Marine Information and Data Acquisition System
Tripno 876 of the Zeeleeuw from 2005-04-04 09:42:55 to 2005-04-04 11:08:42
Back to CruiseResearch ActivitiesStationsMapUnderway DataData graphs

EquipmentUnitsComment
TimeDGPSUTC
LatitudeDGPSDM.mWGS84
LongitudeDGPSDM.mWGS84
HeadingGyrodeg 
SOGDGPSknotsSpeed over ground
COGDGPSdegCourse over ground
DepthEcho soundermeters200 kHz
Missing or incorrect values are displayed as -999
Navigation data collected by the RV Zeeleeuw from 2005-04-04 09:26:23 to 2005-04-04 11:18:58
Time Latitude Longitude Heading SOG COG Depth
2005-04-04 09:27:29 51°13.618 2°56.019 116.6 2.2 296 -999
2005-04-04 09:28:28 51°13.606 2°56.041 138.6 2.4 132 11.1
2005-04-04 09:29:28 51°13.572 2°56.101 138.5 3.1 133 11
2005-04-04 09:30:28 51°13.545 2°56.174 116.9 3.4 113 11.1
2005-04-04 09:31:28 51°13.544 2°56.214 67.6 1 240 10.5
2005-04-04 09:32:29 51°13.547 2°56.217 37.9 0.5 218 -999
2005-04-04 09:33:28 51°13.542 2°56.219 9.7 1.5 185 -999
2005-04-04 09:34:28 51°13.54 2°56.226 337.5 1.6 145 -999
2005-04-04 09:35:28 51°13.533 2°56.228 312.1 1.7 315 -999
2005-04-04 09:36:28 51°13.547 2°56.193 294.1 1.7 295 11.2
2005-04-04 09:37:28 51°13.567 2°56.126 301.7 3.6 300 11.1
2005-04-04 09:38:28 51°13.602 2°56.034 303.4 4.5 301 11.1
2005-04-04 09:39:28 51°13.647 2°55.919 307.1 5.3 303 10.9
2005-04-04 09:40:28 51°13.711 2°55.781 313.2 7 310 13.6
2005-04-04 09:41:28 51°13.809 2°55.652 333.7 7.8 329 11.9
2005-04-04 09:42:28 51°13.926 2°55.563 338.5 7.9 335 11.8
2005-04-04 09:43:28 51°14.049 2°55.473 339.6 8.2 335 11.1
2005-04-04 09:44:28 51°14.191 2°55.358 334.8 10.3 330 12.5
2005-04-04 09:45:28 51°14.319 2°55.161 314.4 11.3 310 12
2005-04-04 09:46:28 51°14.441 2°54.905 307.7 12.5 305 12.4
2005-04-04 09:47:28 51°14.559 2°54.636 304.1 12.2 304 12
2005-04-04 09:48:28 51°14.666 2°54.365 300.2 12 300 12
2005-04-04 09:49:28 51°14.752 2°54.078 292 12 291 11.9
2005-04-04 09:50:28 51°14.806 2°53.771 278.7 12 276 11.8
2005-04-04 09:51:28 51°14.818 2°53.449 275.8 12.2 273 12.4
2005-04-04 09:52:28 51°14.809 2°53.129 267.3 12.3 265 12
2005-04-04 09:53:28 51°14.794 2°52.803 268 12.3 267 11.5
2005-04-04 09:54:28 51°14.78 2°52.48 268.2 12.4 267 11.6
2005-04-04 09:55:28 51°14.786 2°52.22 280.3 7.3 281 12
2005-04-04 09:56:28 51°14.773 2°52.087 244.6 4.3 244 12.2
2005-04-04 09:57:28 51°14.748 2°52.007 245.6 2.9 246 12.2
2005-04-04 09:58:28 51°14.734 2°51.941 249.7 2.6 252 12.1
2005-04-04 09:59:28 51°14.723 2°51.868 257.4 2.9 262 12
2005-04-04 10:00:28 51°14.721 2°51.789 263.4 3 269 12.2
2005-04-04 10:01:28 51°14.717 2°51.711 255.7 2.9 261 12.2
2005-04-04 10:02:28 51°14.704 2°51.641 248.9 2.8 250 12.2
2005-04-04 10:03:28 51°14.686 2°51.569 247.5 2.9 249 12.3
2005-04-04 10:04:28 51°14.669 2°51.497 246.9 2.9 250 12.3
2005-04-04 10:05:28 51°14.653 2°51.425 250.9 2.9 254 12.3
2005-04-04 10:06:28 51°14.641 2°51.35 253.3 2.9 257 12.2
2005-04-04 10:07:28 51°14.627 2°51.276 248.4 2.9 251 12.3
2005-04-04 10:08:28 51°14.611 2°51.202 248.9 2.9 251 12.3
2005-04-04 10:09:28 51°14.596 2°51.128 250.6 3 253 12.2
2005-04-04 10:10:28 51°14.582 2°51.052 251.6 3 255 12.3
2005-04-04 10:11:28 51°14.57 2°50.975 253.2 3 257 12.3
2005-04-04 10:12:28 51°14.56 2°50.897 254.7 3 259 12.3
2005-04-04 10:13:28 51°14.553 2°50.819 255.7 3 260 12.4
2005-04-04 10:14:28 51°14.542 2°50.743 248.8 2.9 252 12.4
2005-04-04 10:15:28 51°14.523 2°50.673 240.9 2.9 242 12.4
2005-04-04 10:16:28 51°14.502 2°50.605 244.1 2.9 247 12.4
2005-04-04 10:17:28 51°14.485 2°50.531 248.5 2.9 251 12.3
2005-04-04 10:18:28 51°14.469 2°50.457 247.6 2.9 251 12.4
2005-04-04 10:19:28 51°14.451 2°50.386 244.4 2.8 246 12.3
2005-04-04 10:20:28 51°14.43 2°50.319 241.5 2.8 242 12.3
2005-04-04 10:21:28 51°14.408 2°50.253 241 2.8 242 12.4
2005-04-04 10:22:28 51°14.386 2°50.186 244.5 2.9 245 12.2
2005-04-04 10:23:28 51°14.367 2°50.113 248.4 3 249 12.3
2005-04-04 10:24:28 51°14.352 2°50.038 251.8 3 253 12.3
2005-04-04 10:25:28 51°14.335 2°49.965 245.8 2.9 247 12.3
2005-04-04 10:26:28 51°14.312 2°49.893 240 3 241 12.4
2005-04-04 10:27:28 51°14.289 2°49.823 243 3 245 12.5
2005-04-04 10:28:28 51°14.269 2°49.745 246.1 3.1 249 12.5
2005-04-04 10:29:28 51°14.253 2°49.668 248.7 3.2 252 12.5
2005-04-04 10:30:28 51°14.235 2°49.591 244 3.1 248 12.5
2005-04-04 10:31:28 51°14.22 2°49.51 248.1 3.1 252 12.6
2005-04-04 10:32:28 51°14.21 2°49.423 262.5 3.6 268 12.7
2005-04-04 10:33:28 51°14.215 2°49.327 273.3 3.7 280 12.8
2005-04-04 10:34:28 51°14.239 2°49.232 293.8 4 299 13.2
2005-04-04 10:35:28 51°14.275 2°49.161 306.4 3 316 13.2
2005-04-04 10:36:29 51°14.309 2°49.116 308.4 2.4 322 13.2
2005-04-04 10:37:28 51°14.337 2°49.083 306 2 325 13.3
2005-04-04 10:38:28 51°14.361 2°49.058 304.3 1.6 329 13.2
2005-04-04 10:39:28 51°14.384 2°49.036 303.4 2.2 322 13.3
2005-04-04 10:40:28 51°14.474 2°49.001 6.7 7.4 10 13.4
2005-04-04 10:41:29 51°14.594 2°49.15 45.5 10.5 42 13.6
2005-04-04 10:42:28 51°14.737 2°49.371 50.1 12.7 47 13.8
2005-04-04 10:43:28 51°14.888 2°49.642 55.2 13.9 52 13.8
2005-04-04 10:44:28 51°15.025 2°49.939 59.9 13.9 56 14
2005-04-04 10:45:28 51°15.122 2°50.274 70 14 66 13.8
2005-04-04 10:46:28 51°15.219 2°50.614 70.7 14.1 66 13.8
2005-04-04 10:47:28 51°15.317 2°50.954 70.5 14.1 66 13.8
2005-04-04 10:48:28 51°15.414 2°51.293 69.9 14 66 13.7
2005-04-04 10:49:28 51°15.512 2°51.63 68.9 14 65 13.6
2005-04-04 10:50:28 51°15.608 2°51.966 69.9 14 66 13.5
2005-04-04 10:51:28 51°15.707 2°52.308 69.5 14.1 65 13.3
2005-04-04 10:52:28 51°15.806 2°52.648 70.1 14.1 65 13
2005-04-04 10:53:28 51°15.905 2°52.988 69.3 14.1 65 13
2005-04-04 10:54:28 51°16.005 2°53.325 69.4 14.2 65 12.8
2005-04-04 10:55:28 51°16.106 2°53.669 69.2 14.1 65 12.6
2005-04-04 10:56:28 51°16.204 2°54.008 68.9 14.2 65 12.5
2005-04-04 10:57:28 51°16.226 2°54.353 115.3 13.2 108 12.4
2005-04-04 10:58:28 51°16.031 2°54.465 178.7 13 176 12.2
2005-04-04 10:59:28 51°15.817 2°54.434 194.1 12.8 191 11.6
2005-04-04 11:00:28 51°15.607 2°54.364 194.5 13 192 11
2005-04-04 11:01:28 51°15.397 2°54.291 194.4 13 192 10.5
2005-04-04 11:02:28 51°15.184 2°54.216 194.1 13.2 192 10.1
2005-04-04 11:03:28 51°14.979 2°54.148 195.2 11.3 192 10.1
2005-04-04 11:04:28 51°14.82 2°54.233 149.5 11 143 11
2005-04-04 11:05:28 51°14.666 2°54.423 147.7 12 142 11.2
2005-04-04 11:06:28 51°14.533 2°54.662 132.8 12.1 127 11.6
2005-04-04 11:07:28 51°14.423 2°54.906 127.7 11 125 11.6
2005-04-04 11:08:28 51°14.327 2°55.134 128.6 9.6 125 11.7
2005-04-04 11:09:28 51°14.237 2°55.305 138.2 7.6 135 12.1
2005-04-04 11:10:28 51°14.141 2°55.41 156.7 6.8 153 11.1
2005-04-04 11:11:28 51°14.04 2°55.484 160 6.7 156 10.4
2005-04-04 11:12:28 51°13.946 2°55.551 159.1 6 155 10.9
2005-04-04 11:13:28 51°13.853 2°55.619 159.8 6.3 157 10.9
2005-04-04 11:14:28 51°13.764 2°55.705 145.3 6.2 140 10.7
2005-04-04 11:15:28 51°13.695 2°55.83 131.4 6.4 128 10.7
2005-04-04 11:16:28 51°13.638 2°55.957 129.7 5.2 126 10
2005-04-04 11:17:28 51°13.608 2°56.05 117.6 3.4 113 10.1
2005-04-04 11:18:29 51°13.595 2°56.102 124.8 0.7 114 8